Ayr, Nebraska
Current Conditions -  °F | °C
As of 10:53 AM on Wednesday 22 Oct 2014 (Local Time) from KHSI Reporting Station
Clear Clear  
Wind Chill: 19°   Ceiling: Unl
Heat Index: 19°   Visibility: 10mi
Dew Point: 12°   Wind: 13mph
Humidity: 63%   Direction: 170°S
Pressure: 30.02"   Gusts: NA
Location:  40.44°N, 98.44°W
Report Text: KHSI 221553Z AUTO 17011KT 10SM CLR 19/12 A3002 RMK AO2 SLP157 T01890117
Loading
Personal Weather Stations






























Interactive Weather Map
Tropical Storm Tracking
New forecast layout! Learn more

10-Day Weather Forecast

Advertisements
Track Severe Weather on mobile